KAL842 RCTP-RKSI
Flight info
| Callsign | KAL842 |
|---|---|
| Flight time | 1h 54m |
| Altitude | 35000 |
| Route | PIANO1C PIANO L3 SALMI B576 CJU Y722 OLMEN OLMEN1Y |
| Aircraft | B77L/H-SDE1E2E3FGHIJ2J3J4J5M1RWXY/LB1D1 |
Departure
| Time | 2026-05-08 01:41 |
|---|---|
| Airport | Taiwan Taoyuan International Airport (RCTP) |
Arrival
| Time | 2026-05-08 03:36 |
|---|---|
| Airport | Incheon International Airport (RKSI) |
| Time | Latitude | Longitude | Altitude | Speed | Heading |
|---|---|---|---|---|---|
| 2026-05-08 01:23 | 25.09060 | 121.24365 | 122 ft | 0 kts | 141° |
| 2026-05-08 01:28 | 25.09062 | 121.24363 | 123 ft | 2 kts | 141° |
| 2026-05-08 01:28 | 25.09074 | 121.24353 | 123 ft | 2 kts | 141° |
| 2026-05-08 01:28 | 25.09086 | 121.24342 | 122 ft | 2 kts | 141° |
| 2026-05-08 01:28 | 25.09098 | 121.24332 | 122 ft | 2 kts | 141° |
| 2026-05-08 01:29 | 25.09110 | 121.24322 | 122 ft | 2 kts | 151° |
| 2026-05-08 01:29 | 25.09123 | 121.24316 | 122 ft | 2 kts | 166° |
| 2026-05-08 01:29 | 25.09138 | 121.24313 | 122 ft | 2 kts | 179° |
| 2026-05-08 01:29 | 25.09153 | 121.24314 | 123 ft | 2 kts | 192° |
| 2026-05-08 01:30 | 25.09167 | 121.24320 | 122 ft | 2 kts | 205° |
| 2026-05-08 01:30 | 25.09181 | 121.24327 | 122 ft | 2 kts | 218° |
| 2026-05-08 01:30 | 25.09190 | 121.24337 | 123 ft | 0 kts | 229° |
| 2026-05-08 01:30 | 25.09186 | 121.24332 | 122 ft | 3 kts | 227° |
| 2026-05-08 01:31 | 25.09168 | 121.24310 | 122 ft | 3 kts | 229° |
| 2026-05-08 01:31 | 25.09150 | 121.24288 | 122 ft | 3 kts | 229° |
| 2026-05-08 01:31 | 25.09132 | 121.24266 | 123 ft | 3 kts | 229° |
| 2026-05-08 01:31 | 25.09118 | 121.24249 | 123 ft | 0 kts | 229° |
| 2026-05-08 01:32 | 25.09117 | 121.24246 | 123 ft | 0 kts | 229° |
| 2026-05-08 01:33 | 25.09106 | 121.24233 | 122 ft | 6 kts | 229° |
| 2026-05-08 01:34 | 25.09058 | 121.24173 | 122 ft | 13 kts | 229° |
| 2026-05-08 01:34 | 25.09000 | 121.24099 | 122 ft | 11 kts | 230° |
| 2026-05-08 01:34 | 25.08948 | 121.24040 | 122 ft | 11 kts | 230° |
| 2026-05-08 01:34 | 25.08892 | 121.23965 | 122 ft | 14 kts | 232° |
| 2026-05-08 01:35 | 25.08824 | 121.23873 | 122 ft | 15 kts | 230° |
| 2026-05-08 01:35 | 25.08748 | 121.23778 | 122 ft | 17 kts | 229° |
| 2026-05-08 01:35 | 25.08662 | 121.23669 | 122 ft | 20 kts | 230° |
| 2026-05-08 01:35 | 25.08565 | 121.23543 | 123 ft | 23 kts | 229° |
| 2026-05-08 01:36 | 25.08455 | 121.23405 | 122 ft | 24 kts | 230° |
| 2026-05-08 01:36 | 25.08345 | 121.23264 | 123 ft | 23 kts | 229° |
| 2026-05-08 01:36 | 25.08242 | 121.23132 | 123 ft | 22 kts | 230° |
| 2026-05-08 01:36 | 25.08144 | 121.23009 | 122 ft | 20 kts | 229° |
| 2026-05-08 01:37 | 25.08048 | 121.22886 | 122 ft | 21 kts | 229° |
| 2026-05-08 01:37 | 25.07951 | 121.22763 | 123 ft | 21 kts | 229° |
| 2026-05-08 01:37 | 25.07851 | 121.22635 | 122 ft | 22 kts | 230° |
| 2026-05-08 01:37 | 25.07747 | 121.22505 | 123 ft | 22 kts | 229° |
| 2026-05-08 01:38 | 25.07645 | 121.22373 | 123 ft | 23 kts | 229° |
| 2026-05-08 01:38 | 25.07538 | 121.22238 | 123 ft | 23 kts | 229° |
| 2026-05-08 01:38 | 25.07430 | 121.22102 | 123 ft | 23 kts | 229° |
| 2026-05-08 01:38 | 25.07321 | 121.21963 | 123 ft | 23 kts | 229° |
| 2026-05-08 01:39 | 25.07227 | 121.21841 | 123 ft | 11 kts | 229° |
| 2026-05-08 01:39 | 25.07180 | 121.21781 | 123 ft | 9 kts | 232° |
| 2026-05-08 01:39 | 25.07181 | 121.21718 | 123 ft | 9 kts | 310° |
| 2026-05-08 01:39 | 25.07234 | 121.21662 | 122 ft | 11 kts | 319° |
| 2026-05-08 01:40 | 25.07298 | 121.21620 | 122 ft | 8 kts | 351° |
| 2026-05-08 01:40 | 25.07337 | 121.21652 | 122 ft | 7 kts | 57° |
| 2026-05-08 01:40 | 25.07399 | 121.21738 | 122 ft | 30 kts | 50° |
| 2026-05-08 01:40 | 25.07691 | 121.22109 | 123 ft | 98 kts | 49° |
| 2026-05-08 01:41 | 25.08282 | 121.22855 | 123 ft | 159 kts | 49° |
| 2026-05-08 01:41 | 25.09085 | 121.23868 | 467 ft | 179 kts | 48° |
| 2026-05-08 01:41 | 25.09874 | 121.24903 | 1313 ft | 177 kts | 48° |
| 2026-05-08 01:41 | 25.10675 | 121.25928 | 1848 ft | 184 kts | 47° |
| 2026-05-08 01:42 | 25.11550 | 121.27035 | 2178 ft | 201 kts | 48° |
| 2026-05-08 01:42 | 25.12518 | 121.28264 | 2520 ft | 221 kts | 48° |
| 2026-05-08 01:42 | 25.13593 | 121.29566 | 2885 ft | 240 kts | 39° |
| 2026-05-08 01:42 | 25.15125 | 121.30437 | 3274 ft | 258 kts | 12° |
| 2026-05-08 01:43 | 25.16914 | 121.30401 | 3920 ft | 265 kts | 344° |
| 2026-05-08 01:43 | 25.18558 | 121.29459 | 4576 ft | 272 kts | 327° |
| 2026-05-08 01:43 | 25.20269 | 121.28597 | 5198 ft | 277 kts | 350° |
| 2026-05-08 01:43 | 25.22207 | 121.28429 | 5927 ft | 279 kts | 359° |
| 2026-05-08 01:44 | 25.24154 | 121.28419 | 6592 ft | 283 kts | 359° |
| 2026-05-08 01:44 | 25.26142 | 121.28402 | 7238 ft | 288 kts | 358° |
| 2026-05-08 01:44 | 25.28163 | 121.28370 | 7814 ft | 292 kts | 358° |
| 2026-05-08 01:44 | 25.30181 | 121.28333 | 8470 ft | 294 kts | 357° |
| 2026-05-08 01:45 | 25.32251 | 121.28293 | 9104 ft | 299 kts | 356° |
| 2026-05-08 01:45 | 25.34352 | 121.28252 | 9764 ft | 302 kts | 356° |
| 2026-05-08 01:45 | 25.36446 | 121.28246 | 10327 ft | 308 kts | 1° |
| 2026-05-08 01:45 | 25.38622 | 121.28594 | 10634 ft | 326 kts | 12° |
| 2026-05-08 01:46 | 25.40840 | 121.29452 | 10926 ft | 344 kts | 24° |
| 2026-05-08 01:46 | 25.42946 | 121.30858 | 11239 ft | 361 kts | 37° |
| 2026-05-08 01:46 | 25.44791 | 121.32811 | 11579 ft | 377 kts | 50° |
| 2026-05-08 01:46 | 25.46286 | 121.35278 | 11927 ft | 393 kts | 59° |
| 2026-05-08 01:47 | 25.47739 | 121.37872 | 12403 ft | 404 kts | 56° |
| 2026-05-08 01:47 | 25.49356 | 121.40453 | 13035 ft | 411 kts | 53° |
| 2026-05-08 01:47 | 25.51056 | 121.42974 | 13762 ft | 415 kts | 51° |
| 2026-05-08 01:48 | 25.54666 | 121.47997 | 15359 ft | 422 kts | 49° |
| 2026-05-08 01:48 | 25.56539 | 121.50512 | 16171 ft | 426 kts | 48° |
| 2026-05-08 01:48 | 25.58451 | 121.53042 | 16872 ft | 432 kts | 48° |
| 2026-05-08 01:48 | 25.60417 | 121.55617 | 17531 ft | 439 kts | 47° |
| 2026-05-08 01:49 | 25.62392 | 121.58188 | 18262 ft | 442 kts | 47° |
| 2026-05-08 01:49 | 25.64402 | 121.60794 | 18988 ft | 446 kts | 47° |
| 2026-05-08 01:49 | 25.66407 | 121.63387 | 19655 ft | 450 kts | 47° |
| 2026-05-08 01:49 | 25.68452 | 121.66027 | 20292 ft | 455 kts | 47° |
| 2026-05-08 01:50 | 25.70515 | 121.68687 | 20888 ft | 460 kts | 47° |
| 2026-05-08 01:50 | 25.72625 | 121.71408 | 21488 ft | 464 kts | 47° |
| 2026-05-08 01:50 | 25.74729 | 121.74120 | 22054 ft | 469 kts | 47° |
| 2026-05-08 01:50 | 25.76853 | 121.76858 | 22667 ft | 472 kts | 47° |
| 2026-05-08 01:51 | 25.79011 | 121.79639 | 23276 ft | 476 kts | 47° |
| 2026-05-08 01:51 | 25.81358 | 121.82241 | 23847 ft | 477 kts | 38° |
| 2026-05-08 01:51 | 25.83985 | 121.84482 | 24462 ft | 478 kts | 33° |
| 2026-05-08 01:51 | 25.86676 | 121.86654 | 25091 ft | 481 kts | 33° |
| 2026-05-08 01:52 | 25.89381 | 121.88833 | 25707 ft | 485 kts | 33° |
| 2026-05-08 01:52 | 25.92105 | 121.91029 | 26292 ft | 489 kts | 33° |
| 2026-05-08 01:52 | 25.94873 | 121.93265 | 26894 ft | 493 kts | 32° |
| 2026-05-08 01:52 | 25.97677 | 121.95534 | 27509 ft | 497 kts | 32° |
| 2026-05-08 01:53 | 26.00447 | 121.97776 | 28163 ft | 500 kts | 32° |
| 2026-05-08 01:53 | 26.03280 | 122.00071 | 28793 ft | 503 kts | 32° |
| 2026-05-08 01:53 | 26.06119 | 122.02303 | 29376 ft | 506 kts | 31° |
| 2026-05-08 01:53 | 26.09011 | 122.04556 | 30093 ft | 506 kts | 31° |
| 2026-05-08 01:54 | 26.11873 | 122.06789 | 30890 ft | 505 kts | 30° |
| 2026-05-08 01:54 | 26.14736 | 122.09026 | 31690 ft | 502 kts | 30° |
| 2026-05-08 01:54 | 26.17584 | 122.11253 | 32423 ft | 500 kts | 30° |
| 2026-05-08 01:54 | 26.20438 | 122.13487 | 32967 ft | 503 kts | 30° |
| 2026-05-08 01:55 | 26.26187 | 122.17992 | 33043 ft | 501 kts | 30° |
| 2026-05-08 01:55 | 26.31842 | 122.22431 | 33044 ft | 501 kts | 30° |
| 2026-05-08 01:56 | 26.37597 | 122.26955 | 33038 ft | 502 kts | 30° |
| 2026-05-08 01:56 | 26.43292 | 122.31438 | 33047 ft | 502 kts | 30° |
| 2026-05-08 01:57 | 26.49023 | 122.35956 | 33045 ft | 503 kts | 29° |
| 2026-05-08 01:57 | 26.54761 | 122.40482 | 33174 ft | 511 kts | 30° |
| 2026-05-08 01:58 | 26.57648 | 122.42763 | 33797 ft | 511 kts | 30° |
| 2026-05-08 01:58 | 26.60545 | 122.45055 | 34702 ft | 505 kts | 29° |
| 2026-05-08 01:58 | 26.63407 | 122.47320 | 35033 ft | 507 kts | 29° |
| 2026-05-08 01:58 | 26.66275 | 122.49590 | 35050 ft | 502 kts | 29° |
| 2026-05-08 01:59 | 26.71977 | 122.54109 | 35059 ft | 499 kts | 29° |
| 2026-05-08 01:59 | 26.77717 | 122.58661 | 35055 ft | 501 kts | 29° |
| 2026-05-08 02:00 | 26.83386 | 122.63165 | 35058 ft | 498 kts | 29° |
| 2026-05-08 02:00 | 26.89071 | 122.67683 | 35045 ft | 503 kts | 29° |
| 2026-05-08 02:01 | 26.94738 | 122.72196 | 35046 ft | 501 kts | 29° |
| 2026-05-08 02:01 | 27.00444 | 122.76746 | 35050 ft | 502 kts | 29° |
| 2026-05-08 02:02 | 27.06148 | 122.81299 | 35050 ft | 503 kts | 29° |
| 2026-05-08 02:02 | 27.11824 | 122.85839 | 35058 ft | 502 kts | 29° |
| 2026-05-08 02:03 | 27.17548 | 122.90427 | 35061 ft | 501 kts | 29° |
| 2026-05-08 02:03 | 27.23194 | 122.94969 | 35061 ft | 504 kts | 31° |
| 2026-05-08 02:04 | 27.28550 | 123.00065 | 35066 ft | 506 kts | 34° |
| 2026-05-08 02:04 | 27.33931 | 123.05293 | 35069 ft | 509 kts | 34° |
| 2026-05-08 02:05 | 27.39295 | 123.10480 | 35072 ft | 506 kts | 34° |
| 2026-05-08 02:05 | 27.44666 | 123.15658 | 35069 ft | 507 kts | 34° |
| 2026-05-08 02:06 | 27.50001 | 123.20798 | 35079 ft | 509 kts | 34° |
| 2026-05-08 02:06 | 27.55374 | 123.25976 | 35081 ft | 509 kts | 34° |
| 2026-05-08 02:07 | 27.60749 | 123.31160 | 35081 ft | 509 kts | 34° |
| 2026-05-08 02:07 | 27.66125 | 123.36350 | 35082 ft | 509 kts | 34° |
| 2026-05-08 02:08 | 27.71501 | 123.41547 | 35087 ft | 507 kts | 34° |
| 2026-05-08 02:08 | 27.76872 | 123.46743 | 35088 ft | 508 kts | 34° |
| 2026-05-08 02:09 | 27.82256 | 123.51959 | 35101 ft | 511 kts | 33° |
| 2026-05-08 02:09 | 27.87632 | 123.57176 | 35098 ft | 508 kts | 33° |
| 2026-05-08 02:10 | 27.93006 | 123.62395 | 35097 ft | 509 kts | 33° |
| 2026-05-08 02:10 | 27.95631 | 123.64953 | 35073 ft | 496 kts | 33° |
| 2026-05-08 02:10 | 27.98259 | 123.67512 | 35091 ft | 499 kts | 34° |
| 2026-05-08 02:11 | 28.03570 | 123.72677 | 35090 ft | 509 kts | 34° |
| 2026-05-08 02:11 | 28.08918 | 123.77896 | 35092 ft | 506 kts | 34° |
| 2026-05-08 02:12 | 28.14255 | 123.83107 | 35097 ft | 509 kts | 34° |
| 2026-05-08 02:12 | 28.19614 | 123.88349 | 35100 ft | 508 kts | 34° |
| 2026-05-08 02:13 | 28.24973 | 123.93599 | 35103 ft | 506 kts | 34° |
| 2026-05-08 02:13 | 28.30271 | 123.98844 | 35096 ft | 513 kts | 38° |
| 2026-05-08 02:14 | 28.34860 | 124.05096 | 35102 ft | 516 kts | 47° |
| 2026-05-08 02:14 | 28.39173 | 124.11687 | 35107 ft | 522 kts | 48° |
| 2026-05-08 02:15 | 28.43500 | 124.18311 | 35108 ft | 525 kts | 48° |
| 2026-05-08 02:15 | 28.47833 | 124.24953 | 35111 ft | 525 kts | 48° |
| 2026-05-08 02:16 | 28.52184 | 124.31632 | 35106 ft | 524 kts | 48° |
| 2026-05-08 02:16 | 28.56515 | 124.38286 | 35101 ft | 526 kts | 48° |
| 2026-05-08 02:17 | 28.60878 | 124.45002 | 35104 ft | 527 kts | 48° |
| 2026-05-08 02:17 | 28.65222 | 124.51697 | 35103 ft | 526 kts | 48° |
| 2026-05-08 02:18 | 28.69562 | 124.58396 | 35105 ft | 527 kts | 48° |
| 2026-05-08 02:18 | 28.73986 | 124.64976 | 35098 ft | 522 kts | 41° |
| 2026-05-08 02:19 | 28.79450 | 124.70285 | 35093 ft | 507 kts | 26° |
| 2026-05-08 02:19 | 28.85706 | 124.73732 | 35092 ft | 495 kts | 12° |
| 2026-05-08 02:20 | 28.92229 | 124.76317 | 35089 ft | 495 kts | 12° |
| 2026-05-08 02:20 | 28.98731 | 124.78891 | 35094 ft | 493 kts | 12° |
| 2026-05-08 02:21 | 29.05281 | 124.81493 | 35095 ft | 497 kts | 12° |
| 2026-05-08 02:21 | 29.11783 | 124.84087 | 35102 ft | 495 kts | 12° |
| 2026-05-08 02:22 | 29.18316 | 124.86696 | 35105 ft | 500 kts | 12° |
| 2026-05-08 02:22 | 29.24893 | 124.89330 | 35104 ft | 498 kts | 12° |
| 2026-05-08 02:23 | 29.31419 | 124.91949 | 35104 ft | 494 kts | 12° |
| 2026-05-08 02:23 | 29.37956 | 124.94572 | 35102 ft | 498 kts | 12° |
| 2026-05-08 02:24 | 29.44498 | 124.97204 | 35105 ft | 499 kts | 12° |
| 2026-05-08 02:24 | 29.51045 | 124.99841 | 35107 ft | 497 kts | 12° |
| 2026-05-08 02:25 | 29.57565 | 125.02470 | 35106 ft | 498 kts | 12° |
| 2026-05-08 02:25 | 29.64113 | 125.05116 | 35109 ft | 497 kts | 12° |
| 2026-05-08 02:26 | 29.70621 | 125.07748 | 35111 ft | 496 kts | 12° |
| 2026-05-08 02:26 | 29.77172 | 125.10399 | 35113 ft | 502 kts | 12° |
| 2026-05-08 02:27 | 29.83730 | 125.13062 | 35111 ft | 495 kts | 12° |
| 2026-05-08 02:27 | 29.90303 | 125.15730 | 35113 ft | 500 kts | 12° |
| 2026-05-08 02:28 | 29.96821 | 125.18381 | 35113 ft | 498 kts | 12° |
| 2026-05-08 02:28 | 30.03388 | 125.21057 | 35115 ft | 500 kts | 12° |
| 2026-05-08 02:29 | 30.09946 | 125.23740 | 35119 ft | 499 kts | 12° |
| 2026-05-08 02:29 | 30.16485 | 125.26418 | 35117 ft | 503 kts | 12° |
| 2026-05-08 02:30 | 30.23037 | 125.29107 | 35115 ft | 498 kts | 12° |
| 2026-05-08 02:30 | 30.29612 | 125.31808 | 35115 ft | 500 kts | 12° |
| 2026-05-08 02:31 | 30.36156 | 125.34499 | 35116 ft | 500 kts | 12° |
| 2026-05-08 02:31 | 30.42707 | 125.37198 | 35115 ft | 499 kts | 12° |
| 2026-05-08 02:32 | 30.49278 | 125.39907 | 35115 ft | 502 kts | 12° |
| 2026-05-08 02:32 | 30.55798 | 125.42602 | 35118 ft | 499 kts | 12° |
| 2026-05-08 02:33 | 30.62355 | 125.45314 | 35117 ft | 498 kts | 12° |
| 2026-05-08 02:33 | 30.68927 | 125.48036 | 35118 ft | 500 kts | 12° |
| 2026-05-08 02:34 | 30.75457 | 125.50746 | 35116 ft | 497 kts | 11° |
| 2026-05-08 02:34 | 30.81957 | 125.53446 | 35116 ft | 499 kts | 12° |
| 2026-05-08 02:35 | 30.88506 | 125.56171 | 35114 ft | 497 kts | 12° |
| 2026-05-08 02:35 | 30.95017 | 125.58882 | 35121 ft | 501 kts | 11° |
| 2026-05-08 02:36 | 31.01590 | 125.61627 | 35114 ft | 497 kts | 12° |
| 2026-05-08 02:36 | 31.08115 | 125.64353 | 35119 ft | 500 kts | 12° |
| 2026-05-08 02:37 | 31.14644 | 125.67086 | 35101 ft | 498 kts | 12° |
| 2026-05-08 02:37 | 31.21198 | 125.69831 | 35104 ft | 500 kts | 12° |
| 2026-05-08 02:38 | 31.27743 | 125.72579 | 35107 ft | 498 kts | 12° |
| 2026-05-08 02:38 | 31.34252 | 125.75315 | 35108 ft | 499 kts | 12° |
| 2026-05-08 02:39 | 31.40771 | 125.78060 | 35112 ft | 499 kts | 11° |
| 2026-05-08 02:39 | 31.47330 | 125.80825 | 35109 ft | 498 kts | 11° |
| 2026-05-08 02:40 | 31.53834 | 125.83571 | 35113 ft | 500 kts | 11° |
| 2026-05-08 02:40 | 31.60346 | 125.86324 | 35107 ft | 497 kts | 11° |
| 2026-05-08 02:41 | 31.66899 | 125.89076 | 35113 ft | 500 kts | 11° |
| 2026-05-08 02:41 | 31.73373 | 125.91801 | 35113 ft | 497 kts | 11° |
| 2026-05-08 02:42 | 31.79898 | 125.94550 | 35112 ft | 498 kts | 11° |
| 2026-05-08 02:42 | 31.86406 | 125.97296 | 35115 ft | 499 kts | 11° |
| 2026-05-08 02:43 | 31.92935 | 126.00059 | 35114 ft | 495 kts | 10° |
| 2026-05-08 02:43 | 31.99403 | 126.02797 | 35113 ft | 496 kts | 10° |
| 2026-05-08 02:44 | 32.05905 | 126.05553 | 35119 ft | 497 kts | 11° |
| 2026-05-08 02:44 | 32.12404 | 126.08308 | 35120 ft | 496 kts | 10° |
| 2026-05-08 02:45 | 32.18927 | 126.11072 | 35121 ft | 498 kts | 10° |
| 2026-05-08 02:45 | 32.25410 | 126.13824 | 35117 ft | 496 kts | 10° |
| 2026-05-08 02:46 | 32.31886 | 126.16578 | 35115 ft | 497 kts | 10° |
| 2026-05-08 02:46 | 32.38409 | 126.19356 | 35111 ft | 495 kts | 10° |
| 2026-05-08 02:47 | 32.44884 | 126.22118 | 35118 ft | 495 kts | 9° |
| 2026-05-08 02:47 | 32.51344 | 126.24878 | 35114 ft | 494 kts | 9° |
| 2026-05-08 02:48 | 32.57809 | 126.27645 | 35111 ft | 494 kts | 9° |
| 2026-05-08 02:48 | 32.64271 | 126.30418 | 35116 ft | 495 kts | 9° |
| 2026-05-08 02:49 | 32.70718 | 126.33190 | 35108 ft | 494 kts | 9° |
| 2026-05-08 02:49 | 32.77221 | 126.35989 | 35111 ft | 493 kts | 9° |
| 2026-05-08 02:50 | 32.83630 | 126.38752 | 35110 ft | 494 kts | 9° |
| 2026-05-08 02:50 | 32.90073 | 126.41535 | 35110 ft | 491 kts | 9° |
| 2026-05-08 02:51 | 32.96484 | 126.44307 | 35109 ft | 493 kts | 9° |
| 2026-05-08 02:51 | 33.02934 | 126.47095 | 35109 ft | 493 kts | 9° |
| 2026-05-08 02:52 | 33.09381 | 126.49864 | 35106 ft | 490 kts | 8° |
| 2026-05-08 02:52 | 33.15775 | 126.52613 | 35117 ft | 493 kts | 8° |
| 2026-05-08 02:53 | 33.22216 | 126.55391 | 35112 ft | 490 kts | 8° |
| 2026-05-08 02:53 | 33.28665 | 126.58172 | 35110 ft | 495 kts | 9° |
| 2026-05-08 02:54 | 33.35112 | 126.60963 | 35118 ft | 489 kts | 9° |
| 2026-05-08 02:54 | 33.41532 | 126.63744 | 35116 ft | 496 kts | 9° |
| 2026-05-08 02:55 | 33.51188 | 126.67956 | 35097 ft | 497 kts | 9° |
| 2026-05-08 02:56 | 33.57717 | 126.70018 | 35096 ft | 470 kts | 355° |
| 2026-05-08 02:56 | 33.64224 | 126.70746 | 35091 ft | 471 kts | 354° |
| 2026-05-08 02:57 | 33.70731 | 126.71429 | 35090 ft | 466 kts | 354° |
| 2026-05-08 02:57 | 33.77206 | 126.72104 | 34908 ft | 469 kts | 354° |
| 2026-05-08 02:57 | 33.80454 | 126.72448 | 35074 ft | 468 kts | 354° |
| 2026-05-08 02:58 | 33.83690 | 126.72789 | 35075 ft | 469 kts | 353° |
| 2026-05-08 02:58 | 33.90209 | 126.73475 | 35088 ft | 470 kts | 353° |
| 2026-05-08 02:59 | 33.96729 | 126.74155 | 35077 ft | 469 kts | 353° |
| 2026-05-08 02:59 | 34.03228 | 126.74836 | 35073 ft | 465 kts | 353° |
| 2026-05-08 03:00 | 34.09714 | 126.75512 | 35076 ft | 471 kts | 353° |
| 2026-05-08 03:00 | 34.16174 | 126.76193 | 35068 ft | 465 kts | 353° |
| 2026-05-08 03:01 | 34.22710 | 126.76872 | 35077 ft | 475 kts | 353° |
| 2026-05-08 03:01 | 34.29284 | 126.77570 | 35070 ft | 474 kts | 353° |
| 2026-05-08 03:02 | 34.35853 | 126.78268 | 35068 ft | 476 kts | 353° |
| 2026-05-08 03:02 | 34.42448 | 126.78969 | 35070 ft | 477 kts | 353° |
| 2026-05-08 03:03 | 34.49076 | 126.79677 | 35074 ft | 478 kts | 353° |
| 2026-05-08 03:03 | 34.55677 | 126.80382 | 35072 ft | 477 kts | 353° |
| 2026-05-08 03:04 | 34.62266 | 126.81087 | 35083 ft | 479 kts | 352° |
| 2026-05-08 03:04 | 34.68922 | 126.81802 | 35068 ft | 475 kts | 352° |
| 2026-05-08 03:05 | 34.75546 | 126.82510 | 35074 ft | 476 kts | 352° |
| 2026-05-08 03:05 | 34.82208 | 126.83222 | 35070 ft | 483 kts | 352° |
| 2026-05-08 03:06 | 34.88846 | 126.83942 | 35076 ft | 479 kts | 352° |
| 2026-05-08 03:06 | 34.95529 | 126.84658 | 35063 ft | 482 kts | 352° |
| 2026-05-08 03:07 | 35.02169 | 126.85381 | 35059 ft | 477 kts | 352° |
| 2026-05-08 03:07 | 35.08778 | 126.86095 | 35057 ft | 475 kts | 352° |
| 2026-05-08 03:08 | 35.15395 | 126.86809 | 35047 ft | 477 kts | 352° |
| 2026-05-08 03:08 | 35.22043 | 126.87528 | 35055 ft | 480 kts | 352° |
| 2026-05-08 03:09 | 35.28653 | 126.88253 | 35053 ft | 473 kts | 352° |
| 2026-05-08 03:09 | 35.35283 | 126.88968 | 35048 ft | 480 kts | 352° |
| 2026-05-08 03:10 | 35.41913 | 126.89694 | 35059 ft | 477 kts | 352° |
| 2026-05-08 03:10 | 35.48546 | 126.90417 | 35043 ft | 480 kts | 352° |
| 2026-05-08 03:11 | 35.55185 | 126.91142 | 35053 ft | 483 kts | 352° |
| 2026-05-08 03:11 | 35.61889 | 126.91878 | 35048 ft | 479 kts | 352° |
| 2026-05-08 03:12 | 35.68559 | 126.92610 | 35056 ft | 479 kts | 352° |
| 2026-05-08 03:12 | 35.75193 | 126.93340 | 35051 ft | 478 kts | 352° |
| 2026-05-08 03:13 | 35.81800 | 126.94065 | 35051 ft | 477 kts | 352° |
| 2026-05-08 03:13 | 35.88443 | 126.94795 | 35033 ft | 479 kts | 353° |
| 2026-05-08 03:14 | 35.95118 | 126.95529 | 35043 ft | 484 kts | 352° |
| 2026-05-08 03:14 | 36.01761 | 126.96270 | 35031 ft | 477 kts | 353° |
| 2026-05-08 03:15 | 36.08478 | 126.97004 | 35034 ft | 494 kts | 353° |
| 2026-05-08 03:15 | 36.15443 | 126.97769 | 35034 ft | 509 kts | 353° |
| 2026-05-08 03:16 | 36.22554 | 126.98565 | 35028 ft | 511 kts | 354° |
| 2026-05-08 03:16 | 36.29655 | 126.99362 | 35004 ft | 509 kts | 354° |
| 2026-05-08 03:16 | 36.33140 | 126.99757 | 34846 ft | 500 kts | 354° |
| 2026-05-08 03:17 | 36.36608 | 127.00151 | 34366 ft | 496 kts | 353° |
| 2026-05-08 03:17 | 36.39984 | 127.00330 | 33581 ft | 488 kts | 348° |
| 2026-05-08 03:17 | 36.43392 | 127.00229 | 32684 ft | 484 kts | 347° |
| 2026-05-08 03:17 | 36.46754 | 127.00101 | 31855 ft | 479 kts | 347° |
| 2026-05-08 03:18 | 36.50044 | 126.99977 | 31100 ft | 473 kts | 347° |
| 2026-05-08 03:18 | 36.53290 | 126.99857 | 30568 ft | 462 kts | 347° |
| 2026-05-08 03:18 | 36.56472 | 126.99742 | 29954 ft | 454 kts | 347° |
| 2026-05-08 03:18 | 36.59628 | 126.99622 | 28809 ft | 459 kts | 347° |
| 2026-05-08 03:19 | 36.62797 | 126.99500 | 27587 ft | 464 kts | 348° |
| 2026-05-08 03:19 | 36.66049 | 126.99378 | 26332 ft | 467 kts | 348° |
| 2026-05-08 03:19 | 36.69253 | 126.99262 | 25305 ft | 464 kts | 349° |
| 2026-05-08 03:19 | 36.72400 | 126.98940 | 24568 ft | 444 kts | 341° |
| 2026-05-08 03:20 | 36.75330 | 126.98064 | 23645 ft | 422 kts | 333° |
| 2026-05-08 03:20 | 36.77989 | 126.96788 | 22631 ft | 410 kts | 330° |
| 2026-05-08 03:20 | 36.80596 | 126.95439 | 21556 ft | 402 kts | 330° |
| 2026-05-08 03:20 | 36.83141 | 126.94112 | 20527 ft | 393 kts | 331° |
| 2026-05-08 03:21 | 36.85634 | 126.92808 | 19658 ft | 381 kts | 331° |
| 2026-05-08 03:21 | 36.88018 | 126.91516 | 18772 ft | 369 kts | 327° |
| 2026-05-08 03:21 | 36.90107 | 126.89830 | 17755 ft | 357 kts | 318° |
| 2026-05-08 03:21 | 36.91846 | 126.87669 | 16633 ft | 352 kts | 308° |
| 2026-05-08 03:22 | 36.93185 | 126.85183 | 15466 ft | 350 kts | 298° |
| 2026-05-08 03:22 | 36.94138 | 126.82420 | 14330 ft | 348 kts | 292° |
| 2026-05-08 03:22 | 36.94850 | 126.79583 | 13268 ft | 345 kts | 289° |
| 2026-05-08 03:22 | 36.95443 | 126.76718 | 12151 ft | 343 kts | 287° |
| 2026-05-08 03:23 | 36.95958 | 126.73830 | 11061 ft | 341 kts | 286° |
| 2026-05-08 03:23 | 36.96428 | 126.70970 | 10207 ft | 333 kts | 285° |
| 2026-05-08 03:23 | 36.96869 | 126.68190 | 9811 ft | 313 kts | 285° |
| 2026-05-08 03:23 | 36.97267 | 126.65637 | 9758 ft | 287 kts | 286° |
| 2026-05-08 03:24 | 36.97630 | 126.63308 | 9802 ft | 267 kts | 286° |
| 2026-05-08 03:24 | 36.97981 | 126.61063 | 9751 ft | 254 kts | 286° |
| 2026-05-08 03:24 | 36.98327 | 126.58967 | 9742 ft | 240 kts | 290° |
| 2026-05-08 03:24 | 36.98928 | 126.57099 | 9730 ft | 228 kts | 308° |
| 2026-05-08 03:25 | 37.00027 | 126.55728 | 9723 ft | 225 kts | 325° |
| 2026-05-08 03:25 | 37.01480 | 126.54916 | 9738 ft | 232 kts | 342° |
| 2026-05-08 03:25 | 37.03086 | 126.54720 | 9590 ft | 233 kts | 351° |
| 2026-05-08 03:25 | 37.04706 | 126.54668 | 9105 ft | 235 kts | 352° |
| 2026-05-08 03:26 | 37.06344 | 126.54621 | 8570 ft | 236 kts | 353° |
| 2026-05-08 03:26 | 37.07972 | 126.54576 | 8138 ft | 233 kts | 353° |
| 2026-05-08 03:26 | 37.09558 | 126.54534 | 7878 ft | 224 kts | 353° |
| 2026-05-08 03:26 | 37.11102 | 126.54492 | 7524 ft | 221 kts | 353° |
| 2026-05-08 03:27 | 37.12648 | 126.54448 | 7064 ft | 222 kts | 353° |
| 2026-05-08 03:27 | 37.14181 | 126.54404 | 6614 ft | 222 kts | 353° |
| 2026-05-08 03:27 | 37.15717 | 126.54360 | 6241 ft | 220 kts | 353° |
| 2026-05-08 03:27 | 37.17224 | 126.54458 | 6015 ft | 216 kts | 8° |
| 2026-05-08 03:28 | 37.18565 | 126.55343 | 5749 ft | 224 kts | 33° |
| 2026-05-08 03:28 | 37.19614 | 126.56857 | 5304 ft | 234 kts | 45° |
| 2026-05-08 03:28 | 37.20559 | 126.58495 | 4944 ft | 234 kts | 46° |
| 2026-05-08 03:28 | 37.21497 | 126.60159 | 4630 ft | 230 kts | 46° |
| 2026-05-08 03:29 | 37.22381 | 126.61738 | 4546 ft | 214 kts | 45° |
| 2026-05-08 03:29 | 37.23351 | 126.63065 | 4226 ft | 199 kts | 26° |
| 2026-05-08 03:29 | 37.24588 | 126.63694 | 3780 ft | 189 kts | 2° |
| 2026-05-08 03:29 | 37.25838 | 126.63581 | 3576 ft | 175 kts | 339° |
| 2026-05-08 03:30 | 37.27990 | 126.62086 | 3568 ft | 177 kts | 325° |
| 2026-05-08 03:30 | 37.29982 | 126.60272 | 3566 ft | 177 kts | 324° |
| 2026-05-08 03:31 | 37.32021 | 126.58475 | 3238 ft | 177 kts | 324° |
| 2026-05-08 03:31 | 37.34029 | 126.56712 | 2784 ft | 176 kts | 324° |
| 2026-05-08 03:32 | 37.35012 | 126.55846 | 2547 ft | 164 kts | 324° |
| 2026-05-08 03:32 | 37.35892 | 126.55069 | 2347 ft | 149 kts | 324° |
| 2026-05-08 03:32 | 37.36710 | 126.54345 | 2160 ft | 138 kts | 323° |
| 2026-05-08 03:32 | 37.37498 | 126.53649 | 1976 ft | 137 kts | 324° |
| 2026-05-08 03:33 | 37.38273 | 126.52966 | 1798 ft | 135 kts | 324° |
| 2026-05-08 03:33 | 37.39017 | 126.52309 | 1614 ft | 125 kts | 324° |
| 2026-05-08 03:33 | 37.39735 | 126.51675 | 1458 ft | 125 kts | 323° |
| 2026-05-08 03:33 | 37.40458 | 126.51053 | 1298 ft | 129 kts | 323° |
| 2026-05-08 03:34 | 37.41209 | 126.50372 | 1127 ft | 135 kts | 322° |
| 2026-05-08 03:34 | 37.41979 | 126.49688 | 942 ft | 135 kts | 323° |
| 2026-05-08 03:34 | 37.42747 | 126.49021 | 742 ft | 133 kts | 322° |
| 2026-05-08 03:34 | 37.43514 | 126.48337 | 550 ft | 136 kts | 322° |
| 2026-05-08 03:35 | 37.44298 | 126.47650 | 375 ft | 139 kts | 321° |
| 2026-05-08 03:35 | 37.45097 | 126.46950 | 193 ft | 140 kts | 321° |
| 2026-05-08 03:35 | 37.45904 | 126.46236 | 37 ft | 136 kts | 321° |
| 2026-05-08 03:35 | 37.46545 | 126.45658 | 36 ft | 92 kts | 325° |
| 2026-05-08 03:36 | 37.46968 | 126.45283 | 36 ft | 64 kts | 325° |
| 2026-05-08 03:36 | 37.47301 | 126.44989 | 35 ft | 39 kts | 325° |
| 2026-05-08 03:36 | 37.47517 | 126.44805 | 35 ft | 35 kts | 332° |
| 2026-05-08 03:37 | 37.47825 | 126.44675 | 35 ft | 18 kts | 353° |
| 2026-05-08 03:37 | 37.47912 | 126.44684 | 35 ft | 8 kts | 55° |
| 2026-05-08 03:37 | 37.47889 | 126.44768 | 35 ft | 16 kts | 136° |
| 2026-05-08 03:37 | 37.47772 | 126.44876 | 35 ft | 25 kts | 145° |
| 2026-05-08 03:38 | 37.47620 | 126.45012 | 35 ft | 25 kts | 145° |
| 2026-05-08 03:38 | 37.47551 | 126.45072 | 35 ft | 25 kts | 144° |
| 2026-05-08 03:38 | 37.47430 | 126.45180 | 35 ft | 23 kts | 145° |
| 2026-05-08 03:39 | 37.47301 | 126.45294 | 35 ft | 21 kts | 145° |
| 2026-05-08 03:39 | 37.47183 | 126.45398 | 35 ft | 19 kts | 145° |
| 2026-05-08 03:39 | 37.47066 | 126.45503 | 35 ft | 22 kts | 145° |
| 2026-05-08 03:39 | 37.46925 | 126.45629 | 35 ft | 26 kts | 144° |
| 2026-05-08 03:40 | 37.46762 | 126.45774 | 35 ft | 29 kts | 145° |
| 2026-05-08 03:40 | 37.46604 | 126.45917 | 35 ft | 27 kts | 144° |
| 2026-05-08 03:40 | 37.46477 | 126.46027 | 35 ft | 13 kts | 146° |
| 2026-05-08 03:40 | 37.46432 | 126.46119 | 35 ft | 14 kts | 78° |
| 2026-05-08 03:41 | 37.46477 | 126.46222 | 35 ft | 9 kts | 22° |
| 2026-05-08 03:41 | 37.46529 | 126.46199 | 35 ft | 4 kts | 326° |
| 2026-05-08 03:41 | 37.46547 | 126.46183 | 35 ft | 0 kts | 324° |